Redgranite, WI (54970)

1:49 PM CST on December 05, 2016 (GMT -0600)
Berlin, Wisconsin | | Change Station

Elev 794 ft 43.97 °N, 88.95 °W | Updated 19 seconds ago

Overcast
Overcast
34.2 °F
Feels Like 34 °F
N
0.0
Wind Variable Wind from SSW

Today
High -- | Low -- °F
--% Chance of Precip.
Yesterday
High -- | Low -- °F
Precip. -- in
Pressure 30.00 in
Visibility 4.0 miles
Clouds Overcast 500 ft
Windchill 34 °F
Dew Point 33 °F
Humidity 96%
Rainfall 0.15 in
Snow Depth Not available.
7:16 AM 4:18 PM
Waxing Crescent, 34% visible
METAR KY50 051856Z AUTO 17009KT 4SM BR OVC005 02/00 A2991 RMK AO2 SLP157 T00170000
Pressure 30.00 in
Visibility 4.0 miles
Clouds Overcast 500 ft
Windchill 34 °F
Dew Point 33 °F
Humidity 96%
Rainfall 0.15 in
Snow Depth Not available.
7:16 AM 4:18 PM
Waxing Crescent, 34% visible
METAR KY50 051856Z AUTO 17009KT 4SM BR OVC005 02/00 A2991 RMK AO2 SLP157 T00170000

10-Day Weather Forecast

Almanac

Astronomy

Dec. 05, 2016 Rise Set
Actual Time
Civil Twilight
Nautical Twilight
Astronomical Twilight
Moon
Length of Visible Light
Length of Day
Tomorrow will be .
, % of the Moon is Illuminated

Today's Extremes

State Highs State Lows

Community

WunderPhotos

Upload Photos

1,955,852 photos uploaded!

WunderBlog® & News

Nearby

Air Quality

  Air Quality AQ Index Pollutant
Not available.

Snow Depth

Station Depth Elevation

Earthquake Activity

City Distance Mag. Time & Date
Minimum magnitude displayed is 2.5.

Coastal Water Temperatures

Place Temperature

Stations

Nearby Weather Stations

Station Location Temp. Windchill Dew Point Humidity Wind Precip. Elev Updated Type
                   

Watches & Warnings

There are currently no watches in effect.